Time;durP1;ratioP1;P1;durP2;ratioP2;P2;SDS_P1;SDS_P2;PMS_P1;PMS_P2;Temp;Humidity;BMP_temperature;BMP_pressure;BME280_temperature;BME280_humidity;BME280_pressure;Samples;Min_cycle;Max_cycle;Signal;HPM_P1;HPM_P2
2020/12/17 00:02:03;;;;;;;10.43;6.68;;;11.00;80.60;;;;;;5008581;28;82781;-74
2020/12/17 00:04:30;;;;;;;13.18;6.43;;;11.00;80.50;;;;;;5027500;28;80087;-75
2020/12/17 00:06:55;;;;;;;10.90;5.90;;;11.00;80.50;;;;;;5008918;28;81807;-74
2020/12/17 00:09:22;;;;;;;12.07;6.28;;;11.00;80.50;;;;;;5009302;28;83482;-73
2020/12/17 00:11:48;;;;;;;10.95;6.15;;;11.00;80.40;;;;;;5009017;28;83329;-73
2020/12/17 00:14:14;;;;;;;11.15;5.80;;;11.00;80.40;;;;;;5027243;28;80283;-73
2020/12/17 00:16:40;;;;;;;13.32;5.85;;;11.00;80.50;;;;;;5027330;28;80513;-74
2020/12/17 00:19:06;;;;;;;10.60;6.07;;;10.90;80.70;;;;;;5027209;28;80465;-74
2020/12/17 00:21:35;;;;;;;10.07;5.57;;;10.90;80.80;;;;;;5027148;28;79659;-74
2020/12/17 00:24:01;;;;;;;11.35;6.35;;;10.90;80.90;;;;;;5026886;28;80089;-75
2020/12/17 00:26:27;;;;;;;10.55;6.70;;;10.80;81.00;;;;;;5027071;28;80373;-77
2020/12/17 00:28:53;;;;;;;11.57;6.15;;;10.90;81.00;;;;;;5008581;28;83190;-74
2020/12/17 00:31:19;;;;;;;10.30;6.22;;;10.80;81.00;;;;;;5027134;28;80612;-77
2020/12/17 00:33:46;;;;;;;12.60;6.18;;;10.80;81.00;;;;;;5027161;28;79884;-77
2020/12/17 00:36:19;;;;;;;11.32;6.25;;;10.80;81.00;;;;;;5026873;28;80536;-77
2020/12/17 00:38:46;;;;;;;10.48;6.47;;;10.80;81.00;;;;;;5026745;28;80624;-75
2020/12/17 00:41:14;;;;;;;12.88;6.18;;;10.80;81.00;;;;;;5026670;28;81065;-77
2020/12/17 00:43:41;;;;;;;12.02;6.68;;;10.80;81.00;;;;;;5008419;28;81512;-75
2020/12/17 00:46:07;;;;;;;14.45;6.55;;;10.70;81.20;;;;;;5008342;28;82596;-76
2020/12/17 00:48:33;;;;;;;11.35;5.68;;;10.70;81.30;;;;;;5007901;28;82428;-73
2020/12/17 00:50:59;;;;;;;11.85;6.15;;;10.60;81.50;;;;;;5008085;28;81260;-76
2020/12/17 00:53:25;;;;;;;11.70;6.93;;;10.70;81.60;;;;;;5026484;28;80477;-74
2020/12/17 00:55:51;;;;;;;11.57;6.53;;;10.70;81.70;;;;;;5025618;28;80601;-72
2020/12/17 00:58:18;;;;;;;13.43;6.20;;;10.70;81.80;;;;;;5026459;28;80532;-73
2020/12/17 01:00:44;;;;;;;9.50;6.18;;;10.70;81.80;;;;;;5008531;28;82427;-73
2020/12/17 01:03:10;;;;;;;11.80;6.72;;;10.70;81.80;;;;;;5008146;28;81507;-72
2020/12/17 01:05:36;;;;;;;13.18;6.85;;;10.70;82.00;;;;;;5026537;28;81107;-73
2020/12/17 01:08:02;;;;;;;13.93;7.03;;;10.70;82.10;;;;;;5008196;28;82941;-74
2020/12/17 01:10:28;;;;;;;10.75;6.18;;;10.70;82.10;;;;;;5026763;28;79857;-74
2020/12/17 01:12:53;;;;;;;9.98;6.15;;;10.70;82.10;;;;;;5007876;28;81534;-73
2020/12/17 01:15:19;;;;;;;10.73;6.00;;;10.70;82.10;;;;;;5026567;28;80559;-74
2020/12/17 01:17:45;;;;;;;13.68;6.18;;;10.70;82.00;;;;;;5026719;28;80663;-77
2020/12/17 01:20:11;;;;;;;11.65;6.53;;;10.70;81.90;;;;;;5008029;28;83335;-73
2020/12/17 01:22:37;;;;;;;10.55;5.93;;;10.70;81.90;;;;;;5007639;28;81925;-73
2020/12/17 01:25:03;;;;;;;11.15;6.45;;;10.70;82.00;;;;;;5007874;28;83462;-74
2020/12/17 01:27:30;;;;;;;14.68;6.75;;;10.80;82.20;;;;;;5026399;28;80848;-74
2020/12/17 01:29:56;;;;;;;13.45;6.85;;;10.90;82.20;;;;;;5026534;28;79949;-74
2020/12/17 01:32:22;;;;;;;13.50;7.30;;;10.90;82.20;;;;;;5007522;28;81696;-73
2020/12/17 01:34:49;;;;;;;13.10;8.45;;;10.90;82.10;;;;;;5026265;28;80580;-73
2020/12/17 01:37:15;;;;;;;12.50;6.82;;;10.90;81.90;;;;;;5006791;28;82991;-73
2020/12/17 01:39:42;;;;;;;14.60;7.88;;;10.90;81.90;;;;;;5008079;28;82115;-73
2020/12/17 01:42:08;;;;;;;13.25;6.38;;;10.90;81.80;;;;;;5026220;28;80308;-73
2020/12/17 01:44:39;;;;;;;14.90;7.25;;;10.90;81.70;;;;;;5007581;28;81952;-72
2020/12/17 01:47:05;;;;;;;14.57;7.03;;;10.90;81.80;;;;;;5007761;28;82943;-73
2020/12/17 01:49:31;;;;;;;15.45;7.57;;;10.90;81.90;;;;;;5025991;28;80629;-71
2020/12/17 01:51:57;;;;;;;14.13;7.40;;;10.90;81.90;;;;;;5025705;28;80242;-71
2020/12/17 01:54:23;;;;;;;11.85;7.07;;;10.90;81.90;;;;;;5025193;28;81705;-71
2020/12/17 01:56:59;;;;;;;11.00;7.20;;;10.90;81.80;;;;;;5026063;28;80184;-73
2020/12/17 01:59:25;;;;;;;12.90;6.97;;;11.00;81.90;;;;;;5025709;28;80751;-75
2020/12/17 02:01:53;;;;;;;10.80;6.82;;;11.00;81.90;;;;;;5025913;28;80243;-72
2020/12/17 02:04:20;;;;;;;15.07;7.80;;;11.00;81.90;;;;;;5007721;28;82425;-73
2020/12/17 02:06:47;;;;;;;14.02;7.82;;;11.00;82.00;;;;;;5027561;28;80331;-73
2020/12/17 02:09:17;;;;;;;18.40;9.13;;;10.90;82.00;;;;;;5028913;28;81618;-71
2020/12/17 02:11:54;;;;;;;16.20;8.63;;;11.00;81.90;;;;;;5010704;28;81482;-72
2020/12/17 02:14:20;;;;;;;16.90;8.32;;;11.00;81.70;;;;;;5028729;28;82279;-72
2020/12/17 02:16:47;;;;;;;18.20;9.45;;;11.10;81.70;;;;;;5029405;28;80373;-73
2020/12/17 02:19:12;;;;;;;13.68;8.27;;;11.10;81.50;;;;;;5029068;28;80599;-73
2020/12/17 02:21:38;;;;;;;17.38;8.20;;;11.10;81.50;;;;;;5010338;28;81593;-72
2020/12/17 02:24:04;;;;;;;14.70;8.20;;;11.10;81.40;;;;;;5010470;28;80540;-74
2020/12/17 02:26:31;;;;;;;15.07;7.75;;;11.20;81.20;;;;;;5028946;28;80892;-74
2020/12/17 02:28:57;;;;;;;12.18;7.25;;;11.20;81.10;;;;;;5010706;28;83575;-76
2020/12/17 02:31:26;;;;;;;17.38;8.32;;;11.20;81.00;;;;;;5010968;28;83078;-76
2020/12/17 02:33:52;;;;;;;14.25;8.10;;;11.30;80.90;;;;;;5010367;28;83870;-76
2020/12/17 02:36:19;;;;;;;15.77;8.30;;;11.20;80.90;;;;;;5010023;28;80783;-73
2020/12/17 02:38:47;;;;;;;15.82;9.98;;;11.20;80.90;;;;;;4993793;28;81199;-72
2020/12/17 02:41:12;;;;;;;19.45;9.85;;;11.20;81.00;;;;;;5007600;28;82843;-73
2020/12/17 02:43:39;;;;;;;16.50;9.35;;;11.20;80.90;;;;;;5028702;28;80751;-74
2020/12/17 02:46:05;;;;;;;17.48;8.80;;;11.20;80.90;;;;;;5028829;28;79877;-74
2020/12/17 02:48:31;;;;;;;20.75;9.93;;;11.20;80.80;;;;;;5009608;28;83237;-73
2020/12/17 02:50:57;;;;;;;18.42;9.88;;;11.20;81.00;;;;;;5009792;28;83569;-72
2020/12/17 02:53:23;;;;;;;18.92;10.15;;;11.20;81.00;;;;;;5027915;28;80639;-74
2020/12/17 02:55:50;;;;;;;17.05;8.57;;;11.10;81.00;;;;;;5025453;28;82594;-74
2020/12/17 02:58:16;;;;;;;16.63;10.38;;;11.10;81.00;;;;;;5028209;28;81162;-75
2020/12/17 03:00:41;;;;;;;24.17;10.25;;;11.10;81.10;;;;;;5025718;28;82435;-73
2020/12/17 03:03:08;;;;;;;20.55;8.98;;;11.10;81.20;;;;;;5007502;28;86612;-73
2020/12/17 03:05:34;;;;;;;18.55;8.93;;;11.10;81.30;;;;;;5028089;28;82828;-75
2020/12/17 03:07:59;;;;;;;14.07;7.75;;;11.10;81.50;;;;;;5028811;28;80700;-72
2020/12/17 03:10:25;;;;;;;12.05;6.80;;;11.10;81.30;;;;;;5028446;28;79998;-75
2020/12/17 03:12:51;;;;;;;12.48;6.75;;;11.00;81.00;;;;;;5028171;28;80606;-75
2020/12/17 03:15:17;;;;;;;13.18;6.90;;;11.00;81.00;;;;;;5028162;28;80226;-75
2020/12/17 03:17:43;;;;;;;13.73;7.20;;;10.90;81.00;;;;;;5027576;28;81058;-77
2020/12/17 03:20:11;;;;;;;15.10;7.72;;;10.90;81.00;;;;;;5009666;28;83223;-76
2020/12/17 03:22:38;;;;;;;13.95;7.43;;;10.90;81.00;;;;;;5028030;28;79788;-78
2020/12/17 03:25:07;;;;;;;14.32;6.97;;;10.90;81.00;;;;;;5028481;28;79782;-75
2020/12/17 03:27:33;;;;;;;13.75;7.68;;;10.90;81.10;;;;;;5009667;28;83625;-76
2020/12/17 03:30:01;;;;;;;13.98;7.93;;;10.90;81.10;;;;;;5028201;28;80161;-73
2020/12/17 03:32:26;;;;;;;16.58;8.00;;;10.90;81.10;;;;;;5027669;28;79864;-74
2020/12/17 03:34:52;;;;;;;15.93;7.70;;;10.90;81.10;;;;;;5027900;28;80230;-74
2020/12/17 03:37:18;;;;;;;14.40;7.65;;;10.90;81.00;;;;;;5027709;28;80887;-74
2020/12/17 03:39:44;;;;;;;13.68;7.85;;;10.90;81.00;;;;;;5009951;28;80759;-74
2020/12/17 03:42:10;;;;;;;12.35;7.20;;;10.90;81.10;;;;;;5009571;28;84006;-74
2020/12/17 03:44:35;;;;;;;12.73;7.53;;;10.90;81.10;;;;;;5027779;28;80244;-75
2020/12/17 03:47:01;;;;;;;13.90;7.93;;;10.80;81.20;;;;;;5028092;28;80524;-75
2020/12/17 03:49:27;;;;;;;17.25;8.82;;;10.80;81.20;;;;;;5027594;28;80375;-74
2020/12/17 03:51:53;;;;;;;12.95;7.80;;;10.80;81.30;;;;;;5009657;28;83421;-75
2020/12/17 03:54:19;;;;;;;18.08;7.47;;;10.80;81.30;;;;;;5009475;28;81415;-74
2020/12/17 03:56:44;;;;;;;16.77;8.25;;;10.70;81.40;;;;;;5027709;28;80366;-74
2020/12/17 03:59:10;;;;;;;14.43;8.20;;;10.70;81.50;;;;;;5028035;28;80798;-74
2020/12/17 04:01:36;;;;;;;11.15;6.38;;;10.80;81.60;;;;;;5009151;28;82445;-74
2020/12/17 04:04:01;;;;;;;12.75;6.95;;;10.80;81.60;;;;;;5027410;28;80105;-73
2020/12/17 04:06:27;;;;;;;17.50;7.30;;;10.80;81.70;;;;;;5008588;28;81797;-72
2020/12/17 04:08:53;;;;;;;13.73;7.25;;;10.80;81.70;;;;;;5027550;28;80305;-76
2020/12/17 04:11:19;;;;;;;14.57;8.05;;;10.80;81.60;;;;;;5027357;28;81116;-74
2020/12/17 04:13:44;;;;;;;15.23;7.63;;;10.80;81.60;;;;;;5008543;28;81160;-74
2020/12/17 04:16:10;;;;;;;13.05;7.53;;;10.80;81.70;;;;;;5027366;28;81272;-73
2020/12/17 04:18:37;;;;;;;13.90;7.05;;;10.90;81.70;;;;;;5027076;28;80470;-74
2020/12/17 04:21:03;;;;;;;15.27;7.00;;;10.90;81.60;;;;;;5027541;28;81198;-75
2020/12/17 04:23:29;;;;;;;15.07;8.18;;;10.90;81.50;;;;;;5027252;28;80260;-74
2020/12/17 04:25:54;;;;;;;20.35;8.35;;;10.90;81.50;;;;;;5008512;28;82851;-75
2020/12/17 04:28:21;;;;;;;13.18;7.63;;;10.80;81.60;;;;;;5027210;28;80758;-71
2020/12/17 04:30:47;;;;;;;13.20;8.18;;;10.80;81.70;;;;;;5007532;28;80999;-72
2020/12/17 04:33:13;;;;;;;13.35;8.18;;;10.70;81.90;;;;;;5008570;28;80938;-73
2020/12/17 04:35:39;;;;;;;16.05;7.88;;;10.70;82.10;;;;;;5026556;28;81205;-74
2020/12/17 04:38:05;;;;;;;14.32;8.25;;;10.70;82.30;;;;;;5008921;28;81364;-74
2020/12/17 04:40:31;;;;;;;16.50;8.57;;;10.70;82.60;;;;;;5007941;28;83026;-75
2020/12/17 04:42:57;;;;;;;16.02;8.63;;;10.70;82.70;;;;;;5026858;28;80215;-73
2020/12/17 04:45:23;;;;;;;15.90;8.60;;;10.70;82.70;;;;;;5008497;28;82605;-74
2020/12/17 04:47:51;;;;;;;13.25;7.97;;;10.70;82.70;;;;;;5026737;28;80198;-75
2020/12/17 04:50:21;;;;;;;16.55;8.68;;;10.60;82.70;;;;;;5026693;28;80664;-74
2020/12/17 04:52:51;;;;;;;14.95;8.63;;;10.60;82.90;;;;;;5007046;28;81475;-73
2020/12/17 04:55:17;;;;;;;18.30;9.63;;;10.60;82.90;;;;;;5026707;28;81495;-74
2020/12/17 04:57:46;;;;;;;15.88;9.20;;;10.60;83.00;;;;;;5026936;28;79903;-74
2020/12/17 05:00:15;;;;;;;15.38;8.75;;;10.60;83.20;;;;;;5026681;28;79816;-74
2020/12/17 05:02:46;;;;;;;14.52;8.60;;;10.60;83.30;;;;;;5026637;28;80227;-75
2020/12/17 05:05:11;;;;;;;17.80;8.95;;;10.60;83.30;;;;;;5007830;28;81826;-74
2020/12/17 05:07:38;;;;;;;18.83;9.00;;;10.60;83.30;;;;;;5026467;28;80341;-73
2020/12/17 05:10:04;;;;;;;14.52;8.88;;;10.50;83.20;;;;;;5008459;28;80934;-73
2020/12/17 05:12:30;;;;;;;13.38;7.97;;;10.50;83.20;;;;;;5026025;28;80279;-75
2020/12/17 05:14:56;;;;;;;15.23;7.57;;;10.40;83.30;;;;;;5008293;28;84184;-74
2020/12/17 05:17:22;;;;;;;12.73;7.57;;;10.40;83.40;;;;;;5026499;28;80518;-72
2020/12/17 05:19:49;;;;;;;14.18;7.40;;;10.40;83.40;;;;;;5007584;28;84381;-73
2020/12/17 05:22:18;;;;;;;15.52;8.30;;;10.40;83.40;;;;;;5026112;28;79854;-72
2020/12/17 05:24:45;;;;;;;16.00;7.65;;;10.40;83.30;;;;;;5026427;28;80551;-73
2020/12/17 05:27:11;;;;;;;16.38;7.30;;;10.40;83.30;;;;;;4991336;28;79801;-73
2020/12/17 05:29:41;;;;;;;12.85;7.60;;;10.40;83.30;;;;;;5026238;28;80434;-73
2020/12/17 05:32:09;;;;;;;14.30;7.72;;;10.40;83.30;;;;;;5025496;28;80402;-73
2020/12/17 05:34:35;;;;;;;11.63;7.10;;;10.30;83.20;;;;;;5007691;28;80458;-72
2020/12/17 05:37:05;;;;;;;18.67;7.38;;;10.40;83.20;;;;;;5025785;28;80367;-73
2020/12/17 05:39:30;;;;;;;13.43;7.80;;;10.30;83.10;;;;;;5026135;28;79910;-73
2020/12/17 05:41:56;;;;;;;12.05;6.88;;;10.20;83.10;;;;;;5028416;28;79807;-72
2020/12/17 05:44:29;;;;;;;13.07;7.32;;;10.20;83.20;;;;;;5029601;28;81675;-72
2020/12/17 05:46:56;;;;;;;14.30;7.63;;;10.20;83.30;;;;;;5029444;28;80260;-72
2020/12/17 05:49:23;;;;;;;10.23;6.45;;;10.10;83.20;;;;;;5029241;28;80727;-73
2020/12/17 05:51:51;;;;;;;15.50;8.27;;;10.10;83.30;;;;;;5010760;28;83557;-73
2020/12/17 05:54:25;;;;;;;12.63;7.07;;;10.10;83.30;;;;;;5010646;28;81822;-73
2020/12/17 05:57:10;;;;;;;18.77;8.40;;;10.10;83.30;;;;;;5029229;28;80737;-72
2020/12/17 05:59:36;;;;;;;13.30;7.60;;;10.10;83.20;;;;;;5029811;28;80700;-75
2020/12/17 06:02:28;;;;;;;13.32;8.02;;;10.10;83.10;;;;;;5010602;28;82562;-74
2020/12/17 06:05:08;;;;;;;19.15;9.20;;;10.20;83.00;;;;;;5029230;28;80589;-73
2020/12/17 06:07:51;;;;;;;12.63;6.93;;;10.10;83.10;;;;;;5029174;28;80240;-75
2020/12/17 06:10:16;;;;;;;18.35;7.07;;;10.20;83.10;;;;;;5029347;28;81129;-77
2020/12/17 06:12:44;;;;;;;11.68;6.07;;;10.20;82.80;;;;;;5010476;28;82789;-75
2020/12/17 06:15:15;;;;;;;13.38;6.93;;;10.10;82.70;;;;;;5010932;28;81980;-73
2020/12/17 06:17:49;;;;;;;11.73;6.35;;;10.10;82.70;;;;;;5011031;28;83860;-73
2020/12/17 06:20:16;;;;;;;13.75;7.57;;;10.10;82.80;;;;;;4994819;28;80666;-71
2020/12/17 06:22:49;;;;;;;12.40;6.88;;;10.10;82.80;;;;;;4994120;28;80373;-73
2020/12/17 06:25:17;;;;;;;11.98;5.97;;;10.00;82.90;;;;;;5028952;28;80753;-74
2020/12/17 06:27:50;;;;;;;13.90;7.45;;;10.00;83.00;;;;;;5029290;28;80766;-72
2020/12/17 06:30:24;;;;;;;14.05;7.32;;;10.00;83.10;;;;;;5011155;28;80616;-72
2020/12/17 06:32:56;;;;;;;13.52;6.78;;;9.90;83.10;;;;;;5027637;28;80144;-73
2020/12/17 06:35:39;;;;;;;16.80;7.72;;;9.90;83.30;;;;;;5003836;28;82456;-72
2020/12/17 06:38:16;;;;;;;18.63;8.25;;;9.90;83.30;;;;;;4994141;28;83533;-72
2020/12/17 06:40:43;;;;;;;13.25;7.10;;;9.90;83.40;;;;;;5010856;28;81002;-72
2020/12/17 06:43:11;;;;;;;11.80;7.18;;;10.00;83.40;;;;;;4993633;28;82682;-73
2020/12/17 06:45:38;;;;;;;14.45;7.45;;;10.00;83.30;;;;;;5025753;28;80406;-73
2020/12/17 06:48:32;;;;;;;12.38;6.70;;;10.10;83.10;;;;;;5026470;28;81468;-72
2020/12/17 06:50:58;;;;;;;;;;;10.10;83.00;;;;;;5028358;28;79863;-71
2020/12/17 06:53:44;;;;;;;19.13;9.07;;;10.10;83.00;;;;;;5013742;28;80459;-73
2020/12/17 06:56:16;;;;;;;15.07;8.57;;;10.10;83.20;;;;;;5009902;28;82237;-74
2020/12/17 06:58:43;;;;;;;13.93;8.10;;;10.20;83.20;;;;;;5029102;28;79819;-74
2020/12/17 07:01:22;;;;;;;19.00;8.75;;;10.30;83.00;;;;;;5028216;28;80600;-74
2020/12/17 07:03:49;;;;;;;14.77;8.65;;;10.30;83.00;;;;;;5028664;28;80745;-68
2020/12/17 07:06:20;;;;;;;14.93;8.27;;;10.30;83.10;;;;;;5010000;28;81393;-70
2020/12/17 07:08:50;;;;;;;19.15;8.63;;;10.40;83.00;;;;;;5027460;28;80916;-72
2020/12/17 07:11:43;;;;;;;15.45;8.10;;;10.40;82.70;;;;;;5027972;28;80552;-71
2020/12/17 07:14:24;;;;;;;16.42;9.10;;;10.50;82.60;;;;;;5010177;28;80827;-73
2020/12/17 07:16:53;;;;;;;15.18;9.05;;;10.40;82.80;;;;;;5009463;28;83546;-71
2020/12/17 07:19:44;;;;;;;17.30;9.65;;;10.50;82.90;;;;;;5027513;28;81178;-74
2020/12/17 07:22:13;;;;;;;17.27;9.10;;;10.50;82.80;;;;;;5028106;28;81259;-69
2020/12/17 07:24:45;;;;;;;17.00;9.38;;;10.50;82.60;;;;;;5028912;28;80262;-71
2020/12/17 07:27:25;;;;;;;19.77;10.40;;;10.60;82.60;;;;;;5027940;28;81093;-72
2020/12/17 07:30:03;;;;;;;18.70;10.50;;;10.60;82.40;;;;;;5009296;28;82565;-71
2020/12/17 07:32:45;;;;;;;17.33;9.68;;;10.60;82.20;;;;;;5025355;28;83398;-71
2020/12/17 07:35:11;;;;;;;21.10;14.23;;;10.70;82.00;;;;;;5009625;28;83521;-71
2020/12/17 07:37:48;;;;;;;22.73;14.38;;;10.70;82.00;;;;;;5025381;28;83227;-70
2020/12/17 07:40:16;;;;;;;20.17;10.65;;;10.80;82.00;;;;;;5025484;28;83054;-71
2020/12/17 07:43:03;;;;;;;15.52;9.73;;;10.90;81.90;;;;;;5025315;28;83219;-71
2020/12/17 07:45:47;;;;;;;19.38;10.40;;;10.90;81.80;;;;;;5009301;28;86232;-69
2020/12/17 07:48:33;;;;;;;16.65;10.50;;;10.90;81.50;;;;;;5025437;28;82426;-73
2020/12/17 07:51:05;;;;;;;17.80;10.13;;;10.90;81.40;;;;;;5024516;28;82851;-65
2020/12/17 07:53:32;;;;;;;16.00;9.13;;;10.90;81.30;;;;;;5024249;28;83988;-66
2020/12/17 07:55:58;;;;;;;16.02;9.95;;;10.90;81.20;;;;;;5027078;28;81695;-67
2020/12/17 07:58:24;;;;;;;15.52;8.60;;;10.90;81.10;;;;;;5027357;28;80371;-68
2020/12/17 08:00:52;;;;;;;15.98;9.55;;;11.00;81.00;;;;;;5027048;28;80415;-67
2020/12/17 08:03:18;;;;;;;22.88;10.80;;;11.00;81.00;;;;;;5027228;28;80656;-67
2020/12/17 08:05:45;;;;;;;23.10;12.73;;;11.00;80.80;;;;;;5024734;28;82594;-67
2020/12/17 08:08:18;;;;;;;28.27;15.07;;;11.00;80.80;;;;;;5024047;28;82634;-66
2020/12/17 08:10:44;;;;;;;;;;;11.00;80.60;;;;;;5025398;28;82514;-67
2020/12/17 08:13:10;;;;;;;64.22;30.08;;;11.00;80.40;;;;;;5013815;28;77837;-66
2020/12/17 08:15:36;;;;;;;61.83;30.25;;;11.00;80.30;;;;;;5024755;28;82436;-65
2020/12/17 08:18:04;;;;;;;53.30;24.27;;;10.90;80.30;;;;;;5006222;28;83512;-67
2020/12/17 08:20:30;;;;;;;43.60;22.25;;;11.00;80.20;;;;;;5024335;28;83429;-67
2020/12/17 08:22:56;;;;;;;34.75;17.50;;;10.90;80.10;;;;;;5024061;28;84551;-66
2020/12/17 08:25:24;;;;;;;24.85;12.38;;;11.00;80.00;;;;;;5024146;28;82623;-66
2020/12/17 08:27:51;;;;;;;20.88;12.10;;;11.10;79.90;;;;;;5005733;28;83595;-66
2020/12/17 08:30:18;;;;;;;18.95;9.40;;;11.00;79.90;;;;;;5024400;28;82615;-66
2020/12/17 08:32:49;;;;;;;17.63;9.65;;;11.00;79.80;;;;;;5026817;28;81146;-66
2020/12/17 08:35:22;;;;;;;16.63;9.48;;;11.00;79.80;;;;;;5008942;28;83159;-66
2020/12/17 08:37:55;;;;;;;21.52;11.00;;;11.00;79.70;;;;;;5027316;28;79829;-67
2020/12/17 08:40:24;;;;;;;18.13;10.82;;;11.00;79.60;;;;;;5024679;28;82496;-67
2020/12/17 08:42:55;;;;;;;16.25;10.45;;;11.10;79.60;;;;;;5024225;28;83255;-66
2020/12/17 08:45:23;;;;;;;20.35;10.90;;;11.20;79.30;;;;;;5024078;28;83015;-66
2020/12/17 08:47:53;;;;;;;17.33;10.13;;;11.30;79.10;;;;;;5024051;28;83417;-66
2020/12/17 08:50:21;;;;;;;24.30;10.10;;;11.40;79.10;;;;;;5024057;28;84472;-66
2020/12/17 08:52:49;;;;;;;18.75;10.18;;;11.40;79.00;;;;;;5023937;28;82554;-67
2020/12/17 08:55:15;;;;;;;20.17;8.98;;;11.50;78.70;;;;;;5005322;28;85949;-67
2020/12/17 08:57:41;;;;;;;16.95;8.43;;;11.50;78.40;;;;;;5026552;28;80596;-66
2020/12/17 09:00:14;;;;;;;17.70;9.75;;;11.60;78.30;;;;;;5026824;28;79813;-67
2020/12/17 09:02:41;;;;;;;17.58;9.52;;;11.70;78.10;;;;;;5026706;28;80506;-66
2020/12/17 09:05:11;;;;;;;15.57;8.85;;;11.80;78.00;;;;;;5026809;28;79704;-66
2020/12/17 09:07:40;;;;;;;16.33;9.38;;;11.90;77.70;;;;;;5026283;28;81847;-66
2020/12/17 09:10:10;;;;;;;15.20;8.68;;;11.90;77.50;;;;;;5026663;28;80244;-66
2020/12/17 09:12:36;;;;;;;19.30;10.50;;;11.90;77.30;;;;;;5026543;28;80392;-67
2020/12/17 09:15:08;;;;;;;18.17;10.43;;;12.00;77.10;;;;;;5024322;28;82494;-67
2020/12/17 09:17:34;;;;;;;20.15;10.45;;;12.00;76.90;;;;;;5022969;28;83298;-67
2020/12/17 09:20:01;;;;;;;26.40;11.07;;;12.00;77.00;;;;;;5005469;28;85843;-67
2020/12/17 09:22:34;;;;;;;21.98;11.00;;;12.00;76.90;;;;;;5023704;28;83313;-67
2020/12/17 09:25:00;;;;;;;17.40;9.57;;;12.00;76.90;;;;;;5024067;28;82955;-66
2020/12/17 09:27:34;;;;;;;17.05;8.88;;;12.00;76.90;;;;;;5026599;28;80695;-67
2020/12/17 09:30:13;;;;;;;16.85;8.75;;;12.10;76.80;;;;;;5025926;28;80323;-67
2020/12/17 09:32:53;;;;;;;14.73;8.10;;;12.30;76.30;;;;;;5007227;28;79866;-67
2020/12/17 09:35:21;;;;;;;14.73;9.05;;;12.40;76.10;;;;;;5006878;28;81935;-66
2020/12/17 09:38:06;;;;;;;23.50;8.80;;;12.40;75.90;;;;;;5004802;28;81263;-66
2020/12/17 09:40:34;;;;;;;19.52;8.77;;;12.50;75.80;;;;;;4987842;28;80882;-66
2020/12/17 09:43:10;;;;;;;15.07;8.82;;;12.70;75.30;;;;;;4987738;28;81977;-65
2020/12/17 09:45:38;;;;;;;19.63;8.73;;;12.80;74.70;;;;;;4987893;28;84108;-67
2020/12/17 09:48:25;;;;;;;17.42;9.00;;;12.80;74.50;;;;;;4989501;28;81538;-67
2020/12/17 09:50:51;;;;;;;16.67;9.07;;;12.90;74.20;;;;;;5004972;28;81455;-67
2020/12/17 09:53:17;;;;;;;18.58;9.05;;;12.90;74.20;;;;;;5004379;28;81278;-68
2020/12/17 09:55:42;;;;;;;16.30;8.48;;;12.90;74.10;;;;;;5006406;28;81456;-66
2020/12/17 09:58:09;;;;;;;14.60;8.05;;;12.80;74.40;;;;;;4985903;28;83175;-67
2020/12/17 10:00:35;;;;;;;17.55;7.45;;;12.70;74.50;;;;;;4995701;28;82011;-67
2020/12/17 10:03:00;;;;;;;13.95;8.13;;;12.80;74.60;;;;;;5006576;28;81692;-69
2020/12/17 10:05:26;;;;;;;22.20;8.68;;;12.90;74.40;;;;;;5006088;28;81393;-67
2020/12/17 10:07:52;;;;;;;16.27;7.70;;;13.00;74.20;;;;;;4993391;28;83499;-67
2020/12/17 10:10:18;;;;;;;23.77;8.55;;;12.90;73.90;;;;;;5013293;28;81766;-67
2020/12/17 10:12:43;;;;;;;26.10;7.93;;;13.00;74.10;;;;;;4990872;28;81834;-67
2020/12/17 10:15:09;;;;;;;14.18;7.32;;;13.00;74.00;;;;;;4988870;28;81927;-66
2020/12/17 10:17:35;;;;;;;17.05;7.10;;;12.90;74.20;;;;;;5007027;28;81757;-67
2020/12/17 10:20:03;;;;;;;21.63;8.90;;;13.00;74.30;;;;;;5009514;28;81594;-67
2020/12/17 10:22:29;;;;;;;24.08;8.02;;;13.00;74.10;;;;;;5006510;28;81326;-68
2020/12/17 10:24:55;;;;;;;21.33;7.10;;;13.00;73.80;;;;;;5010967;28;82306;-68
2020/12/17 10:27:21;;;;;;;15.32;7.90;;;13.00;73.90;;;;;;4990851;28;81765;-66
2020/12/17 10:29:46;;;;;;;29.73;8.90;;;13.10;73.80;;;;;;5012961;28;82182;-66
2020/12/17 10:32:13;;;;;;;15.32;7.05;;;13.20;73.70;;;;;;5010068;28;81601;-66
2020/12/17 10:34:39;;;;;;;22.95;8.40;;;13.30;73.30;;;;;;5010149;28;81420;-68
2020/12/17 10:37:05;;;;;;;15.50;7.40;;;13.40;73.00;;;;;;4995274;28;84308;-67
2020/12/17 10:39:31;;;;;;;16.95;7.47;;;13.40;72.70;;;;;;4991091;28;81766;-66
2020/12/17 10:41:56;;;;;;;23.75;7.32;;;13.50;72.50;;;;;;5011152;28;83269;-66
2020/12/17 10:44:22;;;;;;;15.10;7.03;;;13.50;72.30;;;;;;5012414;28;81497;-66
2020/12/17 10:46:51;;;;;;;14.05;7.25;;;13.60;72.00;;;;;;5012223;28;82728;-68
2020/12/17 10:49:16;;;;;;;14.18;7.03;;;13.70;71.70;;;;;;5010726;28;81078;-66
2020/12/17 10:51:42;;;;;;;26.88;8.75;;;13.90;71.00;;;;;;5012679;28;82266;-66
2020/12/17 10:54:09;;;;;;;12.32;7.45;;;13.90;70.70;;;;;;5010353;28;81151;-68
2020/12/17 10:56:35;;;;;;;13.13;6.75;;;14.10;70.00;;;;;;5016340;28;82221;-66
2020/12/17 10:59:01;;;;;;;14.95;6.93;;;14.20;69.80;;;;;;4995749;28;83235;-66
2020/12/17 11:01:27;;;;;;;15.35;6.22;;;14.50;69.10;;;;;;5008636;28;80898;-66
2020/12/17 11:03:53;;;;;;;9.55;5.75;;;14.80;67.80;;;;;;4993544;28;83668;-65
2020/12/17 11:06:21;;;;;;;23.50;7.85;;;14.90;67.40;;;;;;5010210;28;81911;-66
2020/12/17 11:08:48;;;;;;;12.18;6.40;;;15.00;67.30;;;;;;5009292;28;81523;-66
2020/12/17 11:11:15;;;;;;;18.98;6.68;;;15.10;67.00;;;;;;5011880;28;81109;-67
2020/12/17 11:13:42;;;;;;;14.82;8.10;;;15.20;66.80;;;;;;5010868;28;81330;-67
2020/12/17 11:16:07;;;;;;;10.40;6.57;;;15.30;66.50;;;;;;4995348;28;83321;-66
2020/12/17 11:18:33;;;;;;;11.00;6.15;;;15.30;66.50;;;;;;5011370;28;81106;-67
2020/12/17 11:20:59;;;;;;;16.35;6.53;;;15.20;66.20;;;;;;5012993;28;82038;-65
2020/12/17 11:23:25;;;;;;;13.85;5.72;;;15.10;66.40;;;;;;5012692;28;81810;-66
2020/12/17 11:25:51;;;;;;;12.07;6.90;;;15.20;66.10;;;;;;4993718;28;84437;-66
2020/12/17 11:28:17;;;;;;;16.35;6.35;;;15.40;65.50;;;;;;5010372;28;82331;-66
2020/12/17 11:30:43;;;;;;;8.93;4.82;;;15.90;64.80;;;;;;4993374;28;82482;-66
2020/12/17 11:33:08;;;;;;;13.43;5.40;;;16.60;62.10;;;;;;5008753;28;80961;-68
2020/12/17 11:35:34;;;;;;;10.15;4.72;;;17.00;60.70;;;;;;5012312;28;81409;-68
2020/12/17 11:38:01;;;;;;;10.00;5.38;;;17.30;59.40;;;;;;5011174;28;81076;-66
2020/12/17 11:40:27;;;;;;;10.45;5.57;;;17.20;59.20;;;;;;5008957;28;81026;-67
2020/12/17 11:42:55;;;;;;;9.02;4.68;;;17.30;59.30;;;;;;5012565;28;81563;-67
2020/12/17 11:45:20;;;;;;;9.35;5.93;;;17.40;58.80;;;;;;5009703;28;81634;-67
2020/12/17 11:47:46;;;;;;;19.08;6.45;;;18.30;57.10;;;;;;5008084;28;81809;-66
2020/12/17 11:50:12;;;;;;;13.27;6.35;;;20.80;50.40;;;;;;4994681;28;83769;-66
2020/12/17 11:52:38;;;;;;;11.13;6.43;;;20.90;49.20;;;;;;4994327;28;83417;-67
2020/12/17 11:55:09;;;;;;;12.98;6.15;;;20.50;49.90;;;;;;4993199;28;81431;-68
2020/12/17 11:57:35;;;;;;;16.10;7.07;;;21.40;48.30;;;;;;5017813;28;80782;-66
2020/12/17 12:00:06;;;;;;;13.85;6.40;;;21.40;47.60;;;;;;5009449;28;82697;-67
2020/12/17 12:02:32;;;;;;;15.60;6.60;;;21.20;48.00;;;;;;5012397;28;82214;-67
2020/12/17 12:04:59;;;;;;;15.82;6.63;;;20.70;48.60;;;;;;5009926;28;80799;-67
2020/12/17 12:07:25;;;;;;;14.00;7.25;;;20.40;49.20;;;;;;5007924;28;81739;-67
2020/12/17 12:09:52;;;;;;;11.60;6.95;;;19.90;50.30;;;;;;5011297;28;81947;-67
2020/12/17 12:12:18;;;;;;;15.23;7.28;;;19.50;51.30;;;;;;5008191;28;81497;-67
2020/12/17 12:14:44;;;;;;;14.45;7.65;;;19.20;51.80;;;;;;5008505;28;81573;-66
2020/12/17 12:17:09;;;;;;;11.98;7.18;;;19.40;51.20;;;;;;5013630;28;81453;-66
2020/12/17 12:19:35;;;;;;;14.35;7.47;;;19.70;50.60;;;;;;4993755;28;82640;-66
2020/12/17 12:22:01;;;;;;;13.75;7.15;;;19.90;50.00;;;;;;4997041;28;81572;-69
2020/12/17 12:24:27;;;;;;;13.15;7.80;;;20.30;49.80;;;;;;5011009;28;81901;-66
2020/12/17 12:26:52;;;;;;;13.63;7.25;;;21.60;46.80;;;;;;5011297;28;82203;-67
2020/12/17 12:29:18;;;;;;;15.05;7.93;;;22.30;45.30;;;;;;5008336;28;82121;-68
2020/12/17 12:31:44;;;;;;;14.48;7.38;;;22.40;44.80;;;;;;5007057;28;81993;-67
2020/12/17 12:34:10;;;;;;;16.60;7.50;;;23.00;43.20;;;;;;4992564;28;83329;-67
2020/12/17 12:36:35;;;;;;;14.15;7.68;;;23.70;41.60;;;;;;5011504;28;81680;-68
2020/12/17 12:39:01;;;;;;;13.98;7.05;;;24.10;40.60;;;;;;4994993;28;84526;-68
2020/12/17 12:41:27;;;;;;;46.17;8.98;;;23.80;40.80;;;;;;5008768;28;81635;-72